Kezdőlap
METAR-TAF:

METAR-TAF

Repülőterek :

Algona, Iowa, Amerikai Egyesült Államok

földrajzi szélesség: 43-05N, földrajzi hosszúság: 094-16W, magasság: 372 m

Jelenlegi meteorológiai megfigyelések

A jelentés 31 perccel ezelõtt készült, 12:55 UTC
Északi szél 6 kt
Hőmérséklet 0°C
Páratartalom 80%
Légköri nyomás 1027 hPa
Látótávolság: 16.1 km
Borult 9500 lábon

METAR: KAXA 041255Z AUTO 36006KT 10SM OVC095 M00/M03 A3032 RMK A01

Idő: 07:26 (13:26 UTC)


TAF: hiányzik

Meteorológiai megfigyelések és előrejelzések több, mint 4000 repülőtéren (METAR és TAF jelentéseket).

A térképen piros és sárga pontok jelzik az elérhető meteorológiai állomásokat.

Mozgassa az egeret a pont fölött, hogy megjelenjen az állomás neve.

Azután kattintson az időjárási megfigyelések és előrejelzések megtekintéséhez.

A térkép megváltoztatása: kattintson a fekete keresztel jelölt zöld gombra ráközelítéshez, a vonallal jelölt zöld gombra távolításhoz, vagy a zöld nyilakra a szomszédos térképek eléréséhez.


METAR-TAF: